Time;durP1;ratioP1;P1;durP2;ratioP2;P2;SDS_P1;SDS_P2;PMS_P1;PMS_P2;Temp;Humidity;BMP_temperature;BMP_pressure;BME280_temperature;BME280_humidity;BME280_pressure;Samples;Min_cycle;Max_cycle;Signal;HPM_P1;HPM_P2
2022/01/24 00:01:56;;;;;;;25.75;21.83;;;;;;;18.28;44.47;102601.59;5114792;28;20043;-76
2022/01/24 00:04:25;;;;;;;27.95;22.83;;;;;;;18.27;44.16;102606.09;5113843;28;20059;-77
2022/01/24 00:06:53;;;;;;;23.63;21.00;;;;;;;18.28;44.24;102594.41;5114844;28;20060;-77
2022/01/24 00:09:20;;;;;;;24.48;20.83;;;;;;;18.27;44.21;102598.06;5115244;28;20479;-77
2022/01/24 00:12:02;;;;;;;24.63;21.50;;;;;;;18.28;43.99;102604.28;5113583;28;20044;-76
2022/01/24 00:17:11;;;;;;;24.15;20.73;;;;;;;18.27;43.73;102622.19;5105537;28;20390;-76
2022/01/24 00:28:11;;;;;;;24.13;21.08;;;;;;;18.28;43.21;102612.31;4950967;29;20091;-75
2022/01/24 00:30:39;;;;;;;23.10;20.35;;;;;;;18.29;43.18;102619.41;4951100;29;20055;-76
2022/01/24 00:33:06;;;;;;;24.20;20.50;;;;;;;18.28;43.09;102623.91;4950856;28;20063;-76
2022/01/24 00:35:34;;;;;;;22.90;20.30;;;;;;;18.28;43.03;102626.59;4951081;28;20071;-75
2022/01/24 00:38:02;;;;;;;26.10;21.48;;;;;;;18.29;42.99;102625.63;4951001;28;20051;-76
2022/01/24 00:40:35;;;;;;;25.80;21.52;;;;;;;18.30;42.91;102631.84;4950745;28;20078;-76
2022/01/24 00:43:05;;;;;;;23.88;20.45;;;;;;;18.31;42.73;102630.03;4951111;29;20052;-75
2022/01/24 00:46:29;;;;;;;23.75;21.17;;;;;;;18.32;42.62;102629.13;4951069;29;20067;-75
2022/01/24 00:56:22;;;;;;;23.25;19.73;;;;;;;18.34;42.25;102606.59;4951007;29;20126;-75
2022/01/24 00:58:49;;;;;;;22.80;20.40;;;;;;;18.35;42.10;102610.16;4978627;28;20055;-75
2022/01/24 01:01:17;;;;;;;24.27;21.48;;;;;;;18.35;42.00;102611.03;4991342;28;20042;-75
2022/01/24 01:03:45;;;;;;;22.98;19.83;;;;;;;18.36;41.99;102610.09;5022790;28;20042;-75
2022/01/24 01:06:13;;;;;;;24.80;20.20;;;;;;;18.36;41.99;102599.38;4991267;28;20478;-75
2022/01/24 01:19:47;;;;;;;22.27;19.98;;;;;;;18.40;41.57;102589.34;4991055;28;20053;-75
2022/01/24 01:22:14;;;;;;;25.20;20.50;;;;;;;18.40;41.66;102592.88;4991130;28;20409;-75
2022/01/24 01:24:48;;;;;;;22.25;19.40;;;;;;;18.40;41.57;102586.66;5003067;28;20350;-75
2022/01/24 01:27:33;;;;;;;23.42;20.35;;;;;;;18.43;41.50;102589.16;5026871;28;20046;-75
2022/01/24 01:30:07;;;;;;;24.77;20.67;;;;;;;18.41;41.44;102586.56;4990921;28;20050;-75
2022/01/24 01:56:49;;;;;;;19.75;17.65;;;;;;;18.39;41.32;102572.41;5113002;28;20048;-75
2022/01/24 01:59:16;;;;;;;23.83;19.23;;;;;;;18.39;41.28;102567.03;5113375;28;20048;-75
2022/01/24 02:01:43;;;;;;;21.90;19.58;;;;;;;18.39;41.24;102571.50;5111355;28;20474;-76
2022/01/24 02:04:11;;;;;;;22.42;19.90;;;;;;;18.39;41.16;102566.13;5111670;28;20508;-75
2022/01/24 02:06:39;;;;;;;22.35;19.60;;;;;;;18.38;41.06;102562.59;5111926;28;20051;-75
2022/01/24 02:09:09;;;;;;;23.05;18.98;;;;;;;18.38;41.13;102567.97;5113484;28;20047;-75
2022/01/24 02:11:37;;;;;;;21.17;18.73;;;;;;;18.37;41.14;102568.91;5111501;28;20058;-75
2022/01/24 02:14:13;;;;;;;20.17;17.95;;;;;;;18.37;41.35;102563.56;5114086;28;20044;-76
2022/01/24 02:24:40;;;;;;;21.17;18.95;;;;;;;18.37;41.01;102560.00;5009565;28;20042;-76
2022/01/24 02:27:09;;;;;;;21.40;18.80;;;;;;;18.35;41.09;102553.84;5006120;28;20038;-75
2022/01/24 02:29:52;;;;;;;20.92;18.63;;;;;;;18.36;40.75;102559.16;4991294;28;20050;-76
2022/01/24 02:32:19;;;;;;;23.70;19.27;;;;;;;18.37;40.62;102554.66;4990264;28;20486;-75
2022/01/24 02:34:49;;;;;;;21.17;18.88;;;;;;;18.36;40.63;102553.78;4990515;28;20411;-76
2022/01/24 02:37:19;;;;;;;20.48;18.08;;;;;;;18.37;40.58;102558.19;4989948;28;20047;-75
2022/01/24 02:39:56;;;;;;;21.50;19.05;;;;;;;18.37;40.76;102554.66;4989054;28;20057;-75
2022/01/24 02:53:48;;;;;;;19.70;17.25;;;;;;;18.36;40.60;102550.25;4989992;28;20054;-75
2022/01/24 02:56:15;;;;;;;22.27;18.35;;;;;;;18.36;40.60;102550.25;4989933;28;20397;-75
2022/01/24 02:58:43;;;;;;;20.70;17.92;;;;;;;18.36;40.53;102542.19;4992418;28;20054;-75
2022/01/24 03:01:10;;;;;;;21.10;18.23;;;;;;;18.36;40.49;102539.50;4991834;28;20057;-75
2022/01/24 03:03:38;;;;;;;20.52;18.02;;;;;;;18.36;40.43;102536.84;4993151;28;20077;-75
2022/01/24 03:06:07;;;;;;;19.80;17.23;;;;;;;18.35;40.46;102540.44;4992167;28;20410;-75
2022/01/24 03:08:37;;;;;;;21.13;17.73;;;;;;;18.35;40.44;102532.41;4992842;28;20054;-75
2022/01/24 03:11:05;;;;;;;19.92;17.63;;;;;;;18.34;40.38;102530.66;4992815;28;20061;-76
2022/01/24 03:13:35;;;;;;;19.52;17.42;;;;;;;18.33;40.52;102532.50;4993355;28;20053;-76
2022/01/24 03:16:05;;;;;;;19.63;17.33;;;;;;;18.33;40.34;102523.59;4993524;28;20390;-75
2022/01/24 03:18:32;;;;;;;18.73;16.73;;;;;;;18.32;40.43;102533.44;4992642;28;20049;-76
2022/01/24 03:21:01;;;;;;;23.13;18.35;;;;;;;18.33;40.42;102539.69;4993075;28;20057;-75
2022/01/24 03:23:29;;;;;;;21.63;17.95;;;;;;;18.33;40.32;102545.03;4992753;28;20054;-75
2022/01/24 03:25:56;;;;;;;18.20;15.65;;;;;;;18.32;40.38;102537.94;4998862;28;20045;-75
2022/01/24 03:28:24;;;;;;;21.52;17.17;;;;;;;18.32;40.27;102544.19;5003566;28;20038;-75
2022/01/24 03:30:51;;;;;;;19.17;17.05;;;;;;;18.32;40.02;102544.19;4991605;28;20057;-75
2022/01/24 03:33:19;;;;;;;18.58;16.63;;;;;;;18.31;40.17;102545.13;4992701;28;20053;-75
2022/01/24 03:35:46;;;;;;;18.85;16.48;;;;;;;18.33;40.17;102563.81;4992909;28;20042;-75
2022/01/24 03:38:14;;;;;;;19.95;16.55;;;;;;;18.33;40.15;102577.22;4992376;28;20066;-75
2022/01/24 03:40:42;;;;;;;19.23;16.23;;;;;;;18.33;40.17;102590.63;4992775;28;20046;-76
2022/01/24 03:43:09;;;;;;;20.70;17.98;;;;;;;18.32;40.04;102586.22;4992471;28;20398;-76
2022/01/24 03:45:47;;;;;;;19.25;17.13;;;;;;;18.32;39.92;102592.44;4990899;28;20053;-76
2022/01/24 03:50:51;;;;;;;17.25;15.32;;;;;;;18.31;39.95;102584.47;5115579;28;20424;-75
2022/01/24 03:53:19;;;;;;;16.85;15.02;;;;;;;18.31;39.93;102579.09;5115238;28;20105;-76
2022/01/24 03:55:47;;;;;;;19.48;16.10;;;;;;;18.31;39.74;102580.00;5114497;28;20048;-75
2022/01/24 03:58:14;;;;;;;18.08;15.43;;;;;;;18.32;39.81;102587.06;5115193;28;20035;-75
2022/01/24 04:00:42;;;;;;;17.30;15.10;;;;;;;18.31;39.83;102581.78;5115247;28;20062;-75
2022/01/24 04:03:10;;;;;;;17.33;15.52;;;;;;;18.31;39.83;102585.34;5115362;28;20510;-75
2022/01/24 04:05:38;;;;;;;17.63;15.00;;;;;;;18.31;39.67;102590.72;5115302;28;20056;-75
2022/01/24 04:08:05;;;;;;;21.77;16.50;;;;;;;18.31;39.75;102593.41;5114661;28;20476;-75
2022/01/24 04:10:44;;;;;;;17.58;15.75;;;;;;;18.31;39.77;102588.03;5115250;28;20054;-76
2022/01/24 04:13:36;;;;;;;16.83;15.02;;;;;;;18.31;39.75;102580.00;5115388;28;20047;-76
2022/01/24 04:19:01;;;;;;;16.85;15.00;;;;;;;18.31;39.64;102576.41;5076326;28;20049;-76
2022/01/24 04:24:06;;;;;;;16.05;14.40;;;;;;;18.32;39.62;102586.22;5011569;28;20057;-76
2022/01/24 04:26:35;;;;;;;18.23;15.30;;;;;;;18.31;39.59;102582.66;5011021;28;20038;-76
2022/01/24 04:29:04;;;;;;;19.13;16.35;;;;;;;18.31;39.51;102587.13;5009811;28;20045;-76
2022/01/24 04:31:32;;;;;;;17.92;15.90;;;;;;;18.31;39.39;102588.03;5011471;28;20049;-76
2022/01/24 04:34:00;;;;;;;18.15;15.68;;;;;;;18.31;39.20;102581.78;5011272;28;20044;-75
2022/01/24 04:36:28;;;;;;;17.92;16.02;;;;;;;18.31;39.42;102582.66;5011855;28;20053;-75
2022/01/24 04:38:56;;;;;;;18.83;15.63;;;;;;;18.30;39.40;102578.22;5010994;28;20046;-75
2022/01/24 04:41:28;;;;;;;17.02;14.90;;;;;;;18.31;39.39;102580.00;5011067;28;20516;-75
2022/01/24 04:51:53;;;;;;;20.05;16.08;;;;;;;18.31;39.32;102573.72;5011501;28;20042;-75
2022/01/24 04:56:54;;;;;;;17.15;15.13;;;;;;;18.31;39.51;102576.41;5011140;28;20050;-75
2022/01/24 04:59:21;;;;;;;18.42;16.35;;;;;;;18.30;39.37;102575.56;5010742;28;20045;-75
2022/01/24 05:01:49;;;;;;;16.17;14.52;;;;;;;18.31;39.40;102588.03;5009824;28;20482;-75
2022/01/24 05:04:16;;;;;;;19.73;16.52;;;;;;;18.29;39.32;102590.78;5010627;28;20045;-75
2022/01/24 05:06:43;;;;;;;17.50;15.65;;;;;;;18.28;39.43;102581.00;5010496;28;20049;-75
2022/01/24 05:09:12;;;;;;;19.60;16.13;;;;;;;18.29;39.28;102584.56;5010723;28;20050;-75
2022/01/24 05:25:27;;;;;;;20.17;15.82;;;;;;;18.28;39.43;102583.69;4950420;28;20066;-75
2022/01/24 05:27:54;;;;;;;19.13;17.05;;;;;;;18.28;39.40;102581.00;4949707;28;20078;-75
2022/01/24 05:30:22;;;;;;;18.27;16.35;;;;;;;18.27;39.35;102573.91;4949638;28;20043;-75
2022/01/24 05:32:49;;;;;;;18.60;15.77;;;;;;;18.28;39.52;102572.09;4950621;28;20150;-75
2022/01/24 05:35:16;;;;;;;18.40;15.93;;;;;;;18.26;39.37;102569.47;4949869;29;20056;-76
2022/01/24 05:37:44;;;;;;;20.10;16.38;;;;;;;18.27;39.32;102573.03;4949704;28;20570;-76
2022/01/24 05:40:13;;;;;;;18.75;16.52;;;;;;;18.27;39.38;102567.66;4949848;29;20106;-76
2022/01/24 05:42:40;;;;;;;19.00;16.38;;;;;;;18.27;39.19;102573.91;4950192;28;20070;-75
2022/01/24 05:45:08;;;;;;;18.27;16.08;;;;;;;18.26;39.20;102577.53;4950343;28;20062;-75
2022/01/24 05:47:36;;;;;;;19.77;16.20;;;;;;;18.26;39.12;102576.66;4965012;28;20045;-76
2022/01/24 05:50:04;;;;;;;19.58;15.38;;;;;;;18.23;39.12;102569.66;5050430;28;20052;-76
2022/01/24 05:52:31;;;;;;;18.95;15.60;;;;;;;18.23;39.29;102569.66;5113165;28;20044;-76
2022/01/24 05:54:59;;;;;;;18.92;16.23;;;;;;;18.23;39.03;102576.81;5113384;28;20070;-76
2022/01/24 05:57:26;;;;;;;19.90;16.38;;;;;;;18.23;39.17;102585.75;5113737;28;20051;-76
2022/01/24 05:59:54;;;;;;;17.27;15.27;;;;;;;18.22;39.06;102584.00;5112980;28;20055;-76
2022/01/24 06:02:21;;;;;;;20.35;16.63;;;;;;;18.22;39.15;102593.88;5113355;28;20054;-76
2022/01/24 06:04:49;;;;;;;18.98;15.57;;;;;;;18.20;39.06;102588.59;5112894;28;20050;-76
2022/01/24 06:07:16;;;;;;;17.55;15.50;;;;;;;18.22;39.14;102591.19;5113420;28;20054;-76
2022/01/24 06:09:44;;;;;;;19.45;16.48;;;;;;;18.21;39.13;102594.81;5112942;28;20040;-76
2022/01/24 06:12:11;;;;;;;18.45;16.00;;;;;;;18.20;38.95;102593.94;5111893;28;20092;-76
2022/01/24 06:14:38;;;;;;;17.30;15.48;;;;;;;18.21;38.97;102600.19;5112910;28;20051;-76
2022/01/24 06:17:06;;;;;;;18.33;15.43;;;;;;;18.20;38.93;102599.31;5112911;28;20522;-76
2022/01/24 06:19:33;;;;;;;19.15;15.57;;;;;;;18.19;39.06;102602.94;5083875;28;20038;-75
2022/01/24 06:22:01;;;;;;;16.88;14.63;;;;;;;18.19;39.00;102608.31;5009524;28;20053;-76
2022/01/24 06:24:28;;;;;;;16.73;14.65;;;;;;;18.19;38.91;102612.78;5008313;28;20068;-75
2022/01/24 06:27:10;;;;;;;16.88;14.77;;;;;;;18.17;38.88;102610.19;5010216;28;20046;-75
2022/01/24 06:29:37;;;;;;;17.17;14.48;;;;;;;18.18;38.89;102609.25;5008620;28;20053;-75
2022/01/24 06:32:05;;;;;;;19.83;15.95;;;;;;;18.19;38.99;102612.78;5009373;28;20046;-76
2022/01/24 06:34:32;;;;;;;19.50;15.52;;;;;;;18.17;38.92;102614.69;5013564;28;20049;-76
2022/01/24 06:36:59;;;;;;;16.90;15.02;;;;;;;18.17;38.98;102610.19;5011854;28;20057;-76
2022/01/24 06:39:27;;;;;;;16.88;14.77;;;;;;;18.18;38.89;102608.38;5013174;28;20053;-75
2022/01/24 06:42:15;;;;;;;16.98;15.20;;;;;;;18.17;38.92;102615.56;5013097;28;20046;-76
2022/01/24 06:44:42;;;;;;;16.67;14.93;;;;;;;18.15;38.82;102617.47;5012775;28;20057;-75
2022/01/24 06:47:10;;;;;;;17.00;15.18;;;;;;;18.15;38.97;102608.53;5011560;28;20073;-75
2022/01/24 06:49:37;;;;;;;15.75;14.10;;;;;;;18.15;38.89;102620.16;5011793;28;20050;-75
2022/01/24 06:52:06;;;;;;;16.52;14.68;;;;;;;18.14;38.90;102621.06;5012656;28;20061;-75
2022/01/24 06:54:35;;;;;;;18.20;14.90;;;;;;;18.14;38.95;102614.84;5010757;28;20058;-75
2022/01/24 06:57:03;;;;;;;16.65;14.43;;;;;;;18.14;38.80;102617.53;5012653;28;20049;-75
2022/01/24 06:59:31;;;;;;;18.17;13.57;;;;;;;18.14;38.87;102621.06;5012919;28;20060;-75
2022/01/24 07:01:58;;;;;;;16.42;13.80;;;;;;;18.14;38.81;102626.44;5012602;28;20489;-75
2022/01/24 07:04:26;;;;;;;14.68;13.15;;;;;;;18.14;38.75;102620.22;5012655;28;20060;-76
2022/01/24 07:06:53;;;;;;;17.50;14.52;;;;;;;18.14;38.77;102615.72;5012926;28;20057;-76
2022/01/24 07:09:20;;;;;;;15.45;12.93;;;;;;;18.13;38.68;102619.34;5012547;28;20046;-76
2022/01/24 07:11:50;;;;;;;15.77;13.63;;;;;;;18.13;38.66;102627.38;5012590;28;20049;-76
2022/01/24 07:14:17;;;;;;;15.18;12.40;;;;;;;18.13;38.75;102627.38;5012747;28;20049;-75
2022/01/24 07:19:29;;;;;;;15.90;12.40;;;;;;;18.10;39.18;102632.91;5012529;28;20042;-75
2022/01/24 07:21:58;;;;;;;;;;;;;;;18.11;38.91;102629.28;5013040;28;20050;-76
2022/01/24 07:24:26;;;;;;;15.68;13.98;;;;;;;18.11;38.91;102631.97;5011598;28;19925;-76
2022/01/24 07:26:53;;;;;;;15.88;13.90;;;;;;;18.09;38.89;102622.28;5012835;28;20042;-75
2022/01/24 07:29:21;;;;;;;17.33;14.90;;;;;;;18.09;39.04;102633.00;5012867;28;20056;-75
2022/01/24 07:31:49;;;;;;;15.15;13.55;;;;;;;18.09;38.96;102635.66;5012570;28;20069;-75
2022/01/24 07:34:16;;;;;;;13.60;12.20;;;;;;;18.09;38.84;102633.00;5011425;28;20050;-76
2022/01/24 07:36:44;;;;;;;16.73;13.85;;;;;;;18.08;38.89;102641.97;5027477;28;20061;-77
2022/01/24 07:39:12;;;;;;;14.25;12.73;;;;;;;18.08;38.77;102641.97;5012505;28;20489;-79
2022/01/24 07:41:46;;;;;;;14.40;12.50;;;;;;;18.07;38.73;102650.94;5012967;28;20382;-77
2022/01/24 07:44:20;;;;;;;18.23;13.43;;;;;;;18.06;38.76;102642.03;5012118;28;20046;-77
2022/01/24 07:46:48;;;;;;;14.63;12.73;;;;;;;18.03;38.77;102643.09;5013355;28;20480;-78
2022/01/24 07:49:16;;;;;;;15.75;12.98;;;;;;;18.03;39.02;102645.78;5012000;28;20369;-78
2022/01/24 07:51:44;;;;;;;14.45;12.70;;;;;;;18.02;38.73;102648.50;5012571;28;20053;-77
2022/01/24 07:54:11;;;;;;;16.23;13.52;;;;;;;18.03;38.60;102642.22;5012682;28;20057;-78
2022/01/24 07:56:39;;;;;;;17.73;12.40;;;;;;;18.02;38.65;102641.34;5012374;28;20053;-77
2022/01/24 07:59:07;;;;;;;14.20;12.70;;;;;;;18.02;39.29;102649.38;5011865;28;20477;-77
2022/01/24 08:01:34;;;;;;;15.55;12.73;;;;;;;18.00;39.72;102653.97;5012042;28;20383;-77
2022/01/24 08:04:02;;;;;;;17.02;13.35;;;;;;;18.00;39.61;102655.78;5012092;28;20045;-77
2022/01/24 08:06:31;;;;;;;15.38;13.32;;;;;;;17.99;39.44;102652.25;5012856;28;20385;-78
2022/01/24 08:08:59;;;;;;;14.85;12.70;;;;;;;17.99;39.79;102654.91;5012587;28;20477;-78
2022/01/24 08:11:26;;;;;;;17.70;13.70;;;;;;;17.99;39.38;102660.28;5012411;28;20117;-78
2022/01/24 08:13:54;;;;;;;15.55;12.88;;;;;;;17.95;39.21;102664.06;5012294;28;20481;-77
2022/01/24 08:16:24;;;;;;;18.20;15.15;;;;;;;17.92;38.96;102658.84;5012493;28;20053;-78
2022/01/24 08:18:52;;;;;;;18.23;15.77;;;;;;;17.88;37.39;102656.41;5011097;28;20057;-77
2022/01/24 08:21:20;;;;;;;20.25;18.02;;;;;;;17.85;36.08;102664.59;5012171;28;20053;-77
2022/01/24 08:23:49;;;;;;;20.15;17.10;;;;;;;17.81;36.99;102671.03;5010225;28;20050;-76
2022/01/24 08:26:18;;;;;;;24.02;21.42;;;;;;;17.75;34.45;102667.75;5012107;28;20053;-76
2022/01/24 08:28:46;;;;;;;25.13;22.30;;;;;;;17.71;33.88;102668.81;5012142;28;20045;-76
2022/01/24 08:31:13;;;;;;;25.92;22.70;;;;;;;17.66;33.60;102665.50;5078438;28;20044;-75
2022/01/24 08:33:41;;;;;;;28.52;23.33;;;;;;;17.64;33.24;102677.22;5115182;28;20047;-76
2022/01/24 08:36:08;;;;;;;28.77;24.85;;;;;;;17.60;32.92;102683.66;5114699;28;20061;-76
2022/01/24 08:38:36;;;;;;;28.15;21.85;;;;;;;17.55;33.99;102679.41;5114597;28;20414;-75
2022/01/24 08:41:16;;;;;;;21.05;18.73;;;;;;;17.58;35.97;102680.19;5114619;28;20040;-76
2022/01/24 08:46:19;;;;;;;21.08;17.90;;;;;;;17.62;36.60;102674.59;5114683;28;20048;-76
2022/01/24 08:48:47;;;;;;;21.20;17.98;;;;;;;17.65;36.49;102679.81;5114369;28;20043;-75
2022/01/24 08:51:16;;;;;;;19.45;17.45;;;;;;;17.68;36.50;102676.13;5113250;28;20493;-75
2022/01/24 08:54:05;;;;;;;21.60;16.98;;;;;;;17.69;36.65;102675.16;5114520;28;20044;-75
2022/01/24 08:56:34;;;;;;;18.55;16.50;;;;;;;17.70;36.69;102669.75;5112837;28;20051;-76
2022/01/24 08:59:03;;;;;;;18.92;16.42;;;;;;;17.71;36.87;102674.16;5113646;28;20051;-76
2022/01/24 09:01:31;;;;;;;16.75;14.63;;;;;;;17.73;36.99;102685.66;5114171;28;20046;-76
2022/01/24 09:03:59;;;;;;;17.35;15.52;;;;;;;17.73;36.96;102672.25;5114651;28;20051;-76
2022/01/24 09:06:28;;;;;;;19.70;15.95;;;;;;;17.75;37.10;102677.59;5114759;28;20048;-75
2022/01/24 09:08:59;;;;;;;20.70;15.82;;;;;;;17.74;37.02;102684.78;5023050;28;20046;-76
2022/01/24 09:11:29;;;;;;;20.02;15.50;;;;;;;17.76;37.22;102680.19;5011160;28;20111;-76
2022/01/24 09:13:57;;;;;;;17.15;15.00;;;;;;;17.76;37.20;102677.50;5011110;28;20383;-76
2022/01/24 09:16:24;;;;;;;17.70;15.13;;;;;;;17.78;37.10;102680.09;5010865;28;20054;-75
2022/01/24 09:18:53;;;;;;;16.35;14.57;;;;;;;17.77;37.44;102678.38;5010741;28;20053;-75
2022/01/24 09:21:22;;;;;;;17.77;14.38;;;;;;;17.78;37.40;102683.66;5011080;28;20045;-75
2022/01/24 09:23:50;;;;;;;17.08;14.02;;;;;;;17.79;37.43;102687.22;5011146;28;20116;-75
2022/01/24 09:26:18;;;;;;;18.90;14.25;;;;;;;17.79;37.39;102690.75;5010722;28;20401;-75
2022/01/24 09:28:46;;;;;;;16.67;14.02;;;;;;;17.79;37.42;102693.44;5010605;28;20053;-75
2022/01/24 09:31:15;;;;;;;15.88;13.70;;;;;;;17.79;37.49;102701.47;5009722;28;20504;-75
2022/01/24 09:33:42;;;;;;;15.35;13.75;;;;;;;17.79;37.41;102700.59;5009664;28;20412;-76
2022/01/24 09:36:10;;;;;;;16.15;14.07;;;;;;;17.79;37.56;102689.88;5009761;28;20054;-76
2022/01/24 09:38:37;;;;;;;15.82;13.88;;;;;;;17.79;37.61;102692.56;5010481;28;20065;-76
2022/01/24 09:41:12;;;;;;;14.27;12.52;;;;;;;17.79;37.68;102700.59;5008536;28;20050;-76
2022/01/24 09:43:41;;;;;;;14.15;12.75;;;;;;;17.79;37.66;102690.75;5010939;28;20049;-76
2022/01/24 09:46:09;;;;;;;15.48;13.55;;;;;;;17.81;37.71;102695.16;5008770;28;20049;-75
2022/01/24 09:48:39;;;;;;;17.20;13.95;;;;;;;17.79;37.60;102703.28;5010393;28;20058;-76
2022/01/24 09:51:06;;;;;;;34.90;30.08;;;;;;;17.70;34.87;102698.31;5010298;28;20053;-75
2022/01/24 09:53:34;;;;;;;41.45;33.30;;;;;;;17.43;34.88;102703.25;5010696;28;20046;-76
2022/01/24 09:56:04;;;;;;;37.65;31.58;;;;;;;17.16;35.66;102698.25;5010177;28;20057;-75
2022/01/24 09:58:33;;;;;;;35.70;31.65;;;;;;;16.95;35.76;102700.13;5009953;28;20045;-75
2022/01/24 10:01:03;;;;;;;40.00;33.42;;;;;;;16.70;36.10;102697.66;5009822;28;20042;-76
2022/01/24 10:03:30;;;;;;;39.08;32.53;;;;;;;16.52;36.77;102696.66;5010137;28;20046;-75
2022/01/24 10:06:10;;;;;;;37.60;32.50;;;;;;;16.27;37.26;102696.88;5010237;28;20069;-75
2022/01/24 10:08:37;;;;;;;38.78;33.53;;;;;;;16.06;37.55;102701.34;5013637;28;20057;-78
2022/01/24 10:11:06;;;;;;;33.35;26.85;;;;;;;16.23;38.38;102697.94;5013346;28;20049;-75
2022/01/24 10:16:36;;;;;;;24.20;19.40;;;;;;;16.61;40.57;102694.53;5013622;28;20432;-76
2022/01/24 10:19:08;;;;;;;22.38;18.38;;;;;;;16.74;40.58;102690.41;5012391;28;20054;-78
2022/01/24 10:22:00;;;;;;;37.83;31.63;;;;;;;16.76;37.18;102689.38;5012394;28;20053;-76
2022/01/24 10:24:30;;;;;;;37.80;32.40;;;;;;;16.49;37.62;102693.28;5013103;28;20552;-75
2022/01/24 10:27:06;;;;;;;38.88;32.53;;;;;;;16.29;38.29;102689.69;5012908;28;20045;-76
2022/01/24 10:29:39;;;;;;;39.40;33.65;;;;;;;16.15;38.20;102684.06;5013374;28;20054;-75
2022/01/24 10:32:07;;;;;;;39.03;34.13;;;;;;;16.04;39.34;102681.84;5013374;28;20057;-75
2022/01/24 10:34:36;;;;;;;38.95;33.00;;;;;;;15.94;39.14;102693.00;5013557;28;20057;-76
2022/01/24 10:37:03;;;;;;;40.10;33.78;;;;;;;15.91;39.17;102685.97;5012777;28;20466;-75
2022/01/24 10:39:53;;;;;;;48.03;37.67;;;;;;;15.89;38.74;102684.31;5011783;28;20056;-75
2022/01/24 10:44:55;;;;;;;24.27;20.13;;;;;;;16.15;41.47;102681.38;5012941;28;20046;-76
2022/01/24 10:47:28;;;;;;;26.58;20.52;;;;;;;16.30;41.65;102686.06;5012946;28;20050;-75
2022/01/24 10:49:57;;;;;;;24.35;19.45;;;;;;;16.42;41.66;102675.78;5013079;28;20504;-75
2022/01/24 10:52:27;;;;;;;25.40;19.73;;;;;;;16.53;41.75;102677.03;5012950;28;20399;-75
2022/01/24 10:55:13;;;;;;;24.08;19.20;;;;;;;16.63;41.64;102673.94;5011594;28;20053;-75
2022/01/24 10:57:42;;;;;;;23.20;19.17;;;;;;;16.69;41.75;102679.91;5012717;28;20037;-75
2022/01/24 11:00:15;;;;;;;20.27;18.00;;;;;;;16.75;42.23;102678.78;5013057;28;20046;-75
2022/01/24 11:02:44;;;;;;;25.83;18.92;;;;;;;16.82;42.14;102668.66;5011708;28;20038;-76
2022/01/24 11:05:15;;;;;;;24.00;17.20;;;;;;;16.86;42.27;102680.97;5012052;28;20401;-75
2022/01/24 11:07:57;;;;;;;20.48;16.45;;;;;;;16.90;41.88;102669.19;5011679;28;20049;-76
2022/01/24 11:10:28;;;;;;;22.98;18.38;;;;;;;16.93;41.65;102671.69;5013263;28;20057;-76
2022/01/24 11:12:57;;;;;;;20.15;16.55;;;;;;;16.96;41.65;102667.06;5012694;28;20046;-76
2022/01/24 11:15:25;;;;;;;18.70;15.40;;;;;;;16.98;41.63;102673.22;5012820;28;20042;-76
2022/01/24 11:17:53;;;;;;;18.90;15.00;;;;;;;17.02;41.84;102676.63;5011967;28;20500;-76
2022/01/24 11:20:28;;;;;;;22.90;16.35;;;;;;;17.02;41.90;102672.16;5012671;28;20042;-75
2022/01/24 11:23:01;;;;;;;18.88;15.48;;;;;;;17.05;42.02;102666.66;5012321;28;20045;-75
2022/01/24 11:25:40;;;;;;;17.92;15.15;;;;;;;17.07;41.92;102674.59;5012668;28;20053;-76
2022/01/24 11:28:09;;;;;;;19.17;15.27;;;;;;;17.09;42.12;102669.16;5012629;28;20054;-76
2022/01/24 11:30:45;;;;;;;19.00;14.90;;;;;;;17.11;42.10;102661.94;5012356;28;20049;-76
2022/01/24 11:33:19;;;;;;;19.23;15.13;;;;;;;17.12;41.97;102663.69;5012365;28;20508;-76
2022/01/24 11:35:52;;;;;;;17.67;13.38;;;;;;;17.14;42.41;102669.84;5012788;28;20168;-75
2022/01/24 11:38:43;;;;;;;19.45;14.95;;;;;;;17.15;42.44;102661.72;5012322;28;20050;-75
2022/01/24 11:41:20;;;;;;;19.27;14.15;;;;;;;17.16;42.48;102658.09;5010913;28;20057;-75
2022/01/24 11:43:51;;;;;;;17.80;14.40;;;;;;;17.18;42.70;102655.38;5012698;28;20049;-75
2022/01/24 11:46:52;;;;;;;17.92;15.30;;;;;;;17.18;42.74;102656.25;5011720;28;20042;-76
2022/01/24 11:49:36;;;;;;;17.45;14.13;;;;;;;17.19;42.99;102654.41;4932836;28;20067;-76
2022/01/24 11:52:06;;;;;;;17.92;14.38;;;;;;;17.20;42.96;102654.34;4917293;29;20067;-76
2022/01/24 11:57:35;;;;;;;18.70;14.98;;;;;;;17.21;42.82;102648.03;4932608;28;20575;-75
2022/01/24 12:00:05;;;;;;;17.70;14.60;;;;;;;17.22;42.98;102646.25;4917107;29;20462;-76
2022/01/24 12:02:39;;;;;;;;;;;;;;;17.22;42.89;102643.56;4933627;29;20055;-76
2022/01/24 12:05:24;;;;;;;19.63;15.50;;;;;;;17.23;42.97;102639.94;4932214;29;20367;-76
2022/01/24 12:08:03;;;;;;;21.83;16.15;;;;;;;17.23;43.09;102650.66;4917297;29;20052;-76
2022/01/24 12:10:51;;;;;;;18.23;15.10;;;;;;;17.24;42.84;102639.88;4932639;29;20059;-76
2022/01/24 12:13:26;;;;;;;21.60;15.30;;;;;;;17.24;42.97;102645.22;4916086;29;20059;-76
2022/01/24 12:16:00;;;;;;;17.73;15.82;;;;;;;17.25;42.94;102643.41;4932938;29;20134;-76
2022/01/24 12:18:29;;;;;;;17.40;15.13;;;;;;;17.26;42.95;102639.81;4932999;29;20487;-76
2022/01/24 12:21:06;;;;;;;16.42;14.05;;;;;;;17.26;43.11;102635.31;4916472;28;20055;-75
2022/01/24 12:23:52;;;;;;;19.98;14.60;;;;;;;17.27;42.82;102633.50;4932263;29;20538;-76
2022/01/24 12:26:47;;;;;;;15.30;13.68;;;;;;;17.28;42.92;102628.06;4998893;28;20062;-76
2022/01/24 12:29:27;;;;;;;17.77;15.88;;;;;;;17.27;42.93;102629.03;5010368;28;20100;-76
2022/01/24 12:31:58;;;;;;;18.70;14.43;;;;;;;17.28;43.06;102622.72;5011722;28;20046;-75
2022/01/24 12:34:31;;;;;;;17.92;15.15;;;;;;;17.30;43.13;102620.84;5011895;28;20053;-76
2022/01/24 12:37:23;;;;;;;19.00;15.07;;;;;;;17.30;42.96;102623.53;5011251;28;20060;-76
2022/01/24 12:40:05;;;;;;;20.17;16.33;;;;;;;17.29;42.91;102621.75;4999533;28;20058;-76
2022/01/24 12:48:06;;;;;;;18.05;13.98;;;;;;;17.26;43.33;102618.41;5011394;28;20049;-76
2022/01/24 12:50:33;;;;;;;17.92;14.45;;;;;;;17.27;43.32;102623.66;5011180;28;20397;-76
2022/01/24 12:53:06;;;;;;;18.60;15.18;;;;;;;17.28;43.21;102619.19;5011332;28;20041;-76
2022/01/24 12:55:34;;;;;;;17.83;14.90;;;;;;;17.29;43.07;102621.75;5011162;28;20044;-76
2022/01/24 12:58:01;;;;;;;17.55;14.68;;;;;;;17.29;43.20;102612.88;5011149;28;20057;-76
2022/01/24 13:00:29;;;;;;;17.33;15.43;;;;;;;17.30;43.21;102615.50;5010304;28;20046;-76
2022/01/24 13:02:57;;;;;;;17.52;14.50;;;;;;;17.30;43.14;102615.50;5011084;28;20041;-78
2022/01/24 13:05:25;;;;;;;18.00;13.82;;;;;;;17.32;43.06;102622.56;5010761;28;20050;-76
2022/01/24 13:07:57;;;;;;;16.98;14.02;;;;;;;17.33;43.08;102626.97;5010991;28;20042;-76
2022/01/24 13:10:27;;;;;;;15.25;13.10;;;;;;;17.33;43.26;102616.28;5011136;28;20477;-76
2022/01/24 13:13:07;;;;;;;16.77;13.07;;;;;;;17.34;43.24;102626.03;5010274;28;20061;-76
2022/01/24 13:21:16;;;;;;;14.98;12.68;;;;;;;17.36;43.51;102629.50;5011019;28;20508;-76
2022/01/24 13:24:00;;;;;;;19.85;13.65;;;;;;;17.36;43.71;102634.88;5011239;28;20397;-76
2022/01/24 13:26:28;;;;;;;14.77;13.02;;;;;;;17.36;43.76;102622.34;5010781;28;20386;-76
2022/01/24 13:29:04;;;;;;;14.45;12.95;;;;;;;17.37;43.84;102623.22;5010664;28;20046;-76
2022/01/24 13:31:32;;;;;;;16.08;12.23;;;;;;;17.36;43.85;102624.16;5009359;28;20054;-76
2022/01/24 13:34:02;;;;;;;13.93;12.43;;;;;;;17.36;43.95;102626.84;5010390;28;20041;-76
2022/01/24 13:36:30;;;;;;;14.98;12.80;;;;;;;17.36;43.82;102633.06;5010706;28;20046;-76